Time;durP1;ratioP1;P1;durP2;ratioP2;P2;SDS_P1;SDS_P2;PMS_P1;PMS_P2;Temp;Humidity;BMP_temperature;BMP_pressure;BME280_temperature;BME280_humidity;BME280_pressure;Samples;Min_cycle;Max_cycle;Signal;HPM_P1;HPM_P2
2021/11/11 00:02:09;;;;;;;0.00;0.00;;;;;17.70;101024.00;;;;5069977;28;20569;-71
2021/11/11 00:04:38;;;;;;;0.00;0.00;;;;;17.60;101023.00;;;;5088362;28;20055;-71
2021/11/11 00:07:08;;;;;;;0.08;0.03;;;;;17.60;101032.00;;;;5088118;28;20040;-71
2021/11/11 00:09:38;;;;;;;0.00;0.00;;;;;17.60;101020.00;;;;5070046;28;20039;-72
2021/11/11 00:12:09;;;;;;;0.00;0.00;;;;;17.60;101048.00;;;;5088751;28;20036;-71
2021/11/11 00:14:38;;;;;;;0.00;0.00;;;;;17.50;101030.00;;;;5087155;28;20537;-74
2021/11/11 00:17:08;;;;;;;0.00;0.00;;;;;17.50;101029.00;;;;5069359;28;20048;-73
2021/11/11 00:19:37;;;;;;;0.00;0.00;;;;;17.50;101046.00;;;;5085569;28;20434;-72
2021/11/11 00:22:07;;;;;;;0.10;0.00;;;;;17.40;101070.00;;;;5087525;28;20051;-74
2021/11/11 00:24:37;;;;;;;0.00;0.00;;;;;17.50;101069.00;;;;5088209;28;20109;-72
2021/11/11 00:27:07;;;;;;;0.00;0.00;;;;;17.50;101049.00;;;;5067977;28;20040;-71
2021/11/11 00:29:37;;;;;;;0.00;0.00;;;;;17.40;101058.00;;;;5087593;28;20048;-73
2021/11/11 00:32:07;;;;;;;0.00;0.00;;;;;17.40;101040.00;;;;5069167;28;20056;-72
2021/11/11 00:34:37;;;;;;;0.00;0.00;;;;;17.30;101042.00;;;;5087552;28;20062;-73
2021/11/11 00:37:07;;;;;;;400.58;20.08;;;;;17.20;101068.00;;;;5087590;28;20044;-72
2021/11/11 00:39:36;;;;;;;0.00;0.00;;;;;17.30;101056.00;;;;5069798;28;20044;-71
2021/11/11 00:42:07;;;;;;;0.00;0.00;;;;;17.30;101066.00;;;;5069714;28;20081;-72
2021/11/11 00:44:37;;;;;;;96.63;7.07;;;;;17.30;101079.00;;;;5086660;28;20048;-71
2021/11/11 00:47:07;;;;;;;0.03;0.00;;;;;17.30;101071.00;;;;5087670;28;20552;-71
2021/11/11 00:49:37;;;;;;;0.43;0.10;;;;;17.30;101095.00;;;;5087315;28;20054;-72
2021/11/11 00:52:08;;;;;;;0.28;0.08;;;;;17.30;101095.00;;;;5087464;28;20040;-71
2021/11/11 00:54:42;;;;;;;0.00;0.00;;;;;17.30;101086.00;;;;5087936;28;20040;-72
2021/11/11 00:57:34;;;;;;;0.00;0.00;;;;;17.30;101073.00;;;;5087162;28;20123;-73
2021/11/11 01:00:08;;;;;;;0.00;0.00;;;;;17.30;101112.00;;;;5087670;28;20093;-73
2021/11/11 01:02:39;;;;;;;388.15;24.83;;;;;17.30;101105.00;;;;5086896;28;20040;-73
2021/11/11 01:05:10;;;;;;;1.75;0.38;;;;;17.40;101094.00;;;;5067642;28;20533;-71
2021/11/11 01:07:39;;;;;;;3.03;0.13;;;;;17.40;101094.00;;;;5067671;28;20512;-69
2021/11/11 01:10:11;;;;;;;0.00;0.00;;;;;17.30;101108.00;;;;5067762;28;20055;-72
2021/11/11 01:12:43;;;;;;;0.00;0.00;;;;;17.20;101096.00;;;;5086465;28;20103;-74
2021/11/11 01:15:15;;;;;;;0.43;0.25;;;;;17.10;101099.00;;;;5069053;28;20423;-73
2021/11/11 01:17:46;;;;;;;0.10;0.10;;;;;17.10;101077.00;;;;5068857;28;20071;-73
2021/11/11 01:20:18;;;;;;;0.00;0.00;;;;;17.10;101092.00;;;;5087591;28;20055;-73
2021/11/11 01:22:49;;;;;;;36.83;3.30;;;;;17.10;101096.00;;;;5086488;28;20557;-74
2021/11/11 01:25:20;;;;;;;;;;;;;17.20;101111.00;;;;5068428;28;20048;-71
2021/11/11 01:27:51;;;;;;;7.32;3.10;;;;;17.20;101113.00;;;;5067133;28;19927;-73
2021/11/11 01:30:30;;;;;;;0.00;0.00;;;;;17.10;101106.00;;;;5066450;28;20062;-73
2021/11/11 01:33:09;;;;;;;0.00;0.00;;;;;17.10;101128.00;;;;5087042;28;20055;-71
2021/11/11 01:35:39;;;;;;;0.00;0.00;;;;;17.00;101121.00;;;;5068507;28;20641;-73
2021/11/11 01:38:14;;;;;;;0.00;0.00;;;;;17.10;101127.00;;;;5068588;28;20101;-74
2021/11/11 01:40:46;;;;;;;0.00;0.00;;;;;17.10;101111.00;;;;5068961;28;20067;-75
2021/11/11 01:43:17;;;;;;;0.00;0.00;;;;;17.00;101134.00;;;;5086986;28;20040;-72
2021/11/11 01:45:47;;;;;;;0.00;0.00;;;;;17.10;101126.00;;;;5068893;28;20044;-73
2021/11/11 01:48:22;;;;;;;0.00;0.00;;;;;17.10;101135.00;;;;5068594;28;20566;-72
2021/11/11 01:50:54;;;;;;;0.05;0.05;;;;;17.10;101108.00;;;;5068279;28;20052;-74
2021/11/11 01:53:27;;;;;;;0.00;0.00;;;;;17.20;101123.00;;;;5067825;28;20052;-73
2021/11/11 01:55:57;;;;;;;0.10;0.10;;;;;17.10;101095.00;;;;5086720;28;20047;-72
2021/11/11 01:58:28;;;;;;;0.00;0.00;;;;;17.10;101118.00;;;;5068732;28;20048;-72
2021/11/11 02:00:58;;;;;;;0.00;0.00;;;;;17.00;101146.00;;;;5086858;28;20048;-72
2021/11/11 02:03:33;;;;;;;0.00;0.00;;;;;17.00;101138.00;;;;5068781;28;20462;-73
2021/11/11 02:06:18;;;;;;;0.15;0.10;;;;;17.10;101125.00;;;;5068224;28;20052;-73
2021/11/11 02:09:07;;;;;;;0.45;0.00;;;;;17.00;101136.00;;;;5068261;28;20048;-71
2021/11/11 02:11:54;;;;;;;0.00;0.00;;;;;17.00;101151.00;;;;5067804;28;20075;-69
2021/11/11 02:14:24;;;;;;;0.00;0.00;;;;;16.90;101155.00;;;;5086224;28;20040;-71
2021/11/11 02:16:54;;;;;;;0.00;0.00;;;;;17.00;101145.00;;;;5068411;28;20052;-73
2021/11/11 02:20:00;;;;;;;0.00;0.00;;;;;17.00;101147.00;;;;5067727;28;20040;-71
2021/11/11 02:22:47;;;;;;;0.00;0.00;;;;;17.00;101150.00;;;;5068488;28;20151;-73
2021/11/11 02:25:21;;;;;;;2.35;1.00;;;;;16.90;101168.00;;;;5068712;28;20044;-71
2021/11/11 02:27:59;;;;;;;0.00;0.00;;;;;16.90;101149.00;;;;5068380;28;20047;-70
2021/11/11 02:30:31;;;;;;;0.03;0.03;;;;;16.90;101163.00;;;;5067924;28;20045;-73
2021/11/11 02:33:09;;;;;;;0.13;0.13;;;;;17.00;101174.00;;;;5067491;28;20453;-71
2021/11/11 02:35:40;;;;;;;0.00;0.00;;;;;17.00;101142.00;;;;5067672;28;20056;-71
2021/11/11 02:38:12;;;;;;;0.00;0.00;;;;;16.90;101164.00;;;;5068263;28;20070;-71
2021/11/11 02:40:44;;;;;;;0.00;0.00;;;;;16.90;101150.00;;;;5067655;28;20052;-70
2021/11/11 02:43:15;;;;;;;0.00;0.00;;;;;16.90;101164.00;;;;5067793;28;20044;-73
2021/11/11 02:45:49;;;;;;;0.00;0.00;;;;;16.90;101130.00;;;;5068467;28;20572;-72
2021/11/11 02:48:24;;;;;;;0.40;0.40;;;;;16.90;101156.00;;;;5068341;28;20110;-72
2021/11/11 02:50:57;;;;;;;0.00;0.00;;;;;17.00;101153.00;;;;5071402;28;20802;-71
2021/11/11 02:53:27;;;;;;;0.00;0.00;;;;;17.00;101147.00;;;;5089596;28;20617;-73
2021/11/11 02:55:57;;;;;;;0.00;0.00;;;;;17.00;101156.00;;;;5089747;28;20423;-72
2021/11/11 02:58:31;;;;;;;1.10;0.52;;;;;17.00;101140.00;;;;5071107;28;20073;-71
2021/11/11 03:01:05;;;;;;;0.00;0.00;;;;;17.00;101125.00;;;;5071032;28;20040;-72
2021/11/11 03:03:35;;;;;;;0.00;0.00;;;;;17.10;101144.00;;;;5089489;28;20048;-72
2021/11/11 03:06:09;;;;;;;1.20;0.15;;;;;17.20;101127.00;;;;5071153;28;20052;-73
2021/11/11 03:08:41;;;;;;;0.00;0.00;;;;;17.20;101137.00;;;;5071429;28;20510;-72
2021/11/11 03:11:11;;;;;;;1.00;0.73;;;;;17.20;101139.00;;;;5071631;28;20052;-70
2021/11/11 03:14:01;;;;;;;0.00;0.00;;;;;17.10;101128.00;;;;5088424;28;20060;-71
2021/11/11 03:16:31;;;;;;;0.00;0.00;;;;;17.00;101142.00;;;;5070727;28;20108;-72
2021/11/11 03:19:00;;;;;;;0.25;0.20;;;;;17.10;101136.00;;;;5089497;28;20048;-71
2021/11/11 03:21:30;;;;;;;0.00;0.00;;;;;17.10;101135.00;;;;5089204;28;20410;-72
2021/11/11 03:24:00;;;;;;;242.38;94.68;;;;;17.10;101123.00;;;;5070588;28;20052;-74
2021/11/11 03:26:31;;;;;;;0.35;0.35;;;;;17.10;101119.00;;;;5070238;28;20048;-74
2021/11/11 03:29:01;;;;;;;0.00;0.00;;;;;17.10;101103.00;;;;5070846;28;20044;-71
2021/11/11 03:31:40;;;;;;;0.00;0.00;;;;;17.10;101092.00;;;;5070851;28;20048;-70
2021/11/11 03:34:10;;;;;;;3.83;3.63;;;;;17.10;101102.00;;;;5070877;28;20062;-71
2021/11/11 03:36:40;;;;;;;0.00;0.00;;;;;17.00;101094.00;;;;5067106;28;20542;-72
2021/11/11 03:39:11;;;;;;;0.00;0.00;;;;;17.00;101096.00;;;;5066948;28;20052;-73
2021/11/11 03:41:41;;;;;;;0.00;0.00;;;;;17.00;101102.00;;;;5066859;28;20049;-72
2021/11/11 03:44:12;;;;;;;0.00;0.00;;;;;16.90;101082.00;;;;5068247;28;20291;-72
2021/11/11 03:46:42;;;;;;;0.10;0.10;;;;;16.80;101085.00;;;;5067212;28;20040;-71
2021/11/11 03:49:11;;;;;;;8.88;8.05;;;;;16.80;101100.00;;;;5068422;28;20058;-73
2021/11/11 03:51:42;;;;;;;0.00;0.00;;;;;16.80;101081.00;;;;5068165;28;20048;-72
2021/11/11 03:54:13;;;;;;;0.00;0.00;;;;;16.80;101106.00;;;;5066956;28;20972;-72
2021/11/11 03:56:44;;;;;;;0.00;0.00;;;;;16.90;101094.00;;;;5066963;28;20044;-71
2021/11/11 03:59:14;;;;;;;0.00;0.00;;;;;16.80;101074.00;;;;5068293;28;20045;-71
2021/11/11 04:01:45;;;;;;;0.00;0.00;;;;;16.70;101090.00;;;;5067213;28;20053;-72
2021/11/11 04:04:15;;;;;;;0.00;0.00;;;;;16.80;101060.00;;;;5068302;28;20049;-72
2021/11/11 04:06:46;;;;;;;0.00;0.00;;;;;16.80;101079.00;;;;5066671;28;20047;-70
2021/11/11 04:09:16;;;;;;;6.03;0.35;;;;;16.90;101064.00;;;;5067003;28;20053;-70
2021/11/11 04:11:48;;;;;;;0.00;0.00;;;;;16.90;101080.00;;;;5066505;28;20160;-70
2021/11/11 04:14:19;;;;;;;0.00;0.00;;;;;16.90;101074.00;;;;5066712;28;20052;-70
2021/11/11 04:16:49;;;;;;;0.00;0.00;;;;;16.80;101078.00;;;;5068513;28;20037;-69
2021/11/11 04:19:21;;;;;;;0.00;0.00;;;;;16.90;101064.00;;;;5066634;28;20098;-71
2021/11/11 04:21:50;;;;;;;0.00;0.00;;;;;16.90;101064.00;;;;5068268;28;20045;-71
2021/11/11 04:24:20;;;;;;;0.20;0.08;;;;;16.90;101074.00;;;;5066844;28;20040;-70
2021/11/11 04:26:57;;;;;;;0.00;0.00;;;;;16.80;101049.00;;;;5066089;28;20483;-70
2021/11/11 04:29:30;;;;;;;0.60;0.60;;;;;16.80;101043.00;;;;5065959;28;20083;-71
2021/11/11 04:32:01;;;;;;;0.00;0.00;;;;;16.90;101055.00;;;;5067828;28;20064;-70
2021/11/11 04:34:34;;;;;;;0.00;0.00;;;;;16.80;101071.00;;;;5065835;28;20539;-72
2021/11/11 04:42:37;;;;;;;0.00;0.00;;;;;16.70;101051.00;;;;5066131;28;20051;-72
2021/11/11 04:59:50;;;;;;;0.00;0.00;;;;;16.60;101035.00;;;;5005979;28;20436;-73
2021/11/11 05:02:35;;;;;;;0.17;0.10;;;;;16.70;101024.00;;;;5049123;28;20143;-74
2021/11/11 05:05:06;;;;;;;0.00;0.00;;;;;16.80;101033.00;;;;5065271;28;20061;-72
2021/11/11 05:07:37;;;;;;;0.00;0.00;;;;;16.80;101029.00;;;;5065842;28;20060;-71
2021/11/11 05:10:10;;;;;;;0.00;0.00;;;;;16.70;101015.00;;;;5065337;28;20049;-73
2021/11/11 05:12:41;;;;;;;0.75;0.08;;;;;16.70;101027.00;;;;5065231;28;20053;-71
2021/11/11 05:15:11;;;;;;;0.00;0.00;;;;;16.70;101039.00;;;;5065550;28;20427;-73
2021/11/11 05:17:43;;;;;;;0.00;0.00;;;;;16.60;101023.00;;;;5065421;28;20135;-74
2021/11/11 05:20:16;;;;;;;0.00;0.00;;;;;16.60;101040.00;;;;5065514;28;20522;-73
2021/11/11 05:22:47;;;;;;;0.00;0.00;;;;;16.70;101048.00;;;;5065212;28;20040;-72
2021/11/11 05:25:17;;;;;;;0.00;0.00;;;;;16.80;101045.00;;;;5065238;28;20052;-72
2021/11/11 05:27:49;;;;;;;0.00;0.00;;;;;16.80;101039.00;;;;5065550;28;20060;-72
2021/11/11 05:30:20;;;;;;;0.00;0.00;;;;;16.80;101024.00;;;;5065355;28;20540;-73
2021/11/11 05:32:50;;;;;;;0.88;0.10;;;;;16.80;101023.00;;;;5066753;28;20543;-73
2021/11/11 05:35:24;;;;;;;0.00;0.00;;;;;16.70;101042.00;;;;5065236;28;20060;-74
2021/11/11 05:37:55;;;;;;;0.10;0.00;;;;;16.70;101049.00;;;;5049530;28;20524;-70
2021/11/11 05:40:26;;;;;;;0.00;0.00;;;;;16.80;101049.00;;;;5064883;28;20519;-71
2021/11/11 05:42:56;;;;;;;0.00;0.00;;;;;16.60;101043.00;;;;5065549;28;20131;-71
2021/11/11 05:45:26;;;;;;;0.00;0.00;;;;;16.60;101034.00;;;;5065553;28;20045;-73
2021/11/11 05:47:59;;;;;;;0.00;0.00;;;;;16.50;101051.00;;;;5066464;28;20521;-71
2021/11/11 05:50:36;;;;;;;0.00;0.00;;;;;16.60;101016.00;;;;5065014;28;20056;-72
2021/11/11 05:53:06;;;;;;;0.00;0.00;;;;;16.60;101031.00;;;;5065146;28;20063;-72
2021/11/11 05:55:37;;;;;;;0.00;0.00;;;;;16.50;101031.00;;;;5065082;28;20476;-71
2021/11/11 05:58:12;;;;;;;0.00;0.00;;;;;16.40;101015.00;;;;5067325;28;20533;-71
2021/11/11 06:00:42;;;;;;;0.00;0.00;;;;;16.40;101032.00;;;;5064840;28;20044;-71
2021/11/11 06:03:19;;;;;;;0.10;0.10;;;;;16.50;101043.00;;;;5064624;28;20049;-73
2021/11/11 06:05:56;;;;;;;0.03;0.00;;;;;16.60;101045.00;;;;5064990;28;20052;-72
2021/11/11 06:08:31;;;;;;;0.00;0.00;;;;;16.60;101025.00;;;;5064700;28;20048;-72
2021/11/11 06:11:01;;;;;;;0.00;0.00;;;;;16.60;101048.00;;;;5066151;28;20047;-72
2021/11/11 06:13:30;;;;;;;0.00;0.00;;;;;16.50;101009.00;;;;5067001;28;20048;-71
2021/11/11 06:16:00;;;;;;;0.00;0.00;;;;;16.50;101032.00;;;;5064975;28;20527;-71
2021/11/11 06:18:31;;;;;;;0.00;0.00;;;;;16.50;101029.00;;;;5066262;28;20048;-74
2021/11/11 06:21:01;;;;;;;0.00;0.00;;;;;16.50;101063.00;;;;5066600;28;20127;-72
2021/11/11 06:23:36;;;;;;;0.00;0.00;;;;;16.50;101058.00;;;;5066613;28;20388;-70
2021/11/11 06:26:06;;;;;;;0.00;0.00;;;;;16.50;101056.00;;;;5068136;28;20052;-71
2021/11/11 06:28:52;;;;;;;0.00;0.00;;;;;16.50;101050.00;;;;5068947;28;20406;-72
2021/11/11 06:31:24;;;;;;;0.30;0.20;;;;;16.50;101069.00;;;;5068698;28;20535;-71
2021/11/11 06:33:54;;;;;;;0.00;0.00;;;;;16.60;101060.00;;;;5068307;28;20052;-71
2021/11/11 06:36:24;;;;;;;0.00;0.00;;;;;16.70;101043.00;;;;5068641;28;20060;-73
2021/11/11 06:38:57;;;;;;;0.00;0.00;;;;;16.80;101058.00;;;;5069701;28;20499;-71
2021/11/11 06:41:27;;;;;;;0.00;0.00;;;;;16.80;101039.00;;;;5069856;28;20048;-71
2021/11/11 06:43:56;;;;;;;0.00;0.00;;;;;16.90;101035.00;;;;5070112;28;20044;-74
2021/11/11 06:46:26;;;;;;;0.00;0.00;;;;;17.00;101043.00;;;;5069752;28;21146;-72
2021/11/11 06:48:56;;;;;;;0.00;0.00;;;;;17.00;101049.00;;;;5069573;28;20059;-72
2021/11/11 06:51:26;;;;;;;0.00;0.00;;;;;17.00;101055.00;;;;5069198;28;21103;-73
2021/11/11 06:53:55;;;;;;;1.35;0.80;;;;;17.00;101074.00;;;;5068405;28;20052;-72
2021/11/11 06:56:24;;;;;;;0.00;0.00;;;;;17.00;101069.00;;;;5069243;28;20040;-72
2021/11/11 06:58:54;;;;;;;0.10;0.10;;;;;17.00;101066.00;;;;5069219;28;21026;-73
2021/11/11 07:01:24;;;;;;;0.00;0.00;;;;;17.00;101068.00;;;;5067779;28;20052;-72
2021/11/11 07:03:54;;;;;;;0.00;0.00;;;;;17.10;101070.00;;;;5067727;28;20052;-72
2021/11/11 07:06:24;;;;;;;0.00;0.00;;;;;17.00;101071.00;;;;5068398;28;20094;-72
2021/11/11 07:08:54;;;;;;;0.00;0.00;;;;;17.00;101068.00;;;;5069757;28;20051;-73
2021/11/11 07:11:23;;;;;;;0.00;0.00;;;;;17.00;101070.00;;;;5069193;28;20533;-73
2021/11/11 07:13:52;;;;;;;0.00;0.00;;;;;17.10;101054.00;;;;5069019;28;20041;-72
2021/11/11 07:16:22;;;;;;;0.00;0.00;;;;;17.00;101071.00;;;;5068574;28;20424;-72
2021/11/11 07:18:52;;;;;;;0.00;0.00;;;;;17.00;101057.00;;;;5068692;28;20515;-71
2021/11/11 07:21:21;;;;;;;0.00;0.00;;;;;17.00;101054.00;;;;5068627;28;20048;-71
2021/11/11 07:23:50;;;;;;;0.00;0.00;;;;;17.00;101057.00;;;;5068923;28;20056;-71
2021/11/11 07:26:20;;;;;;;0.00;0.00;;;;;16.90;101070.00;;;;5068824;28;20048;-72
2021/11/11 07:28:49;;;;;;;0.25;0.08;;;;;16.90;101069.00;;;;5068638;28;20052;-71
2021/11/11 07:31:25;;;;;;;0.00;0.00;;;;;16.80;101062.00;;;;5068585;28;20045;-72
2021/11/11 07:33:56;;;;;;;0.00;0.00;;;;;16.80;101061.00;;;;5068928;28;20059;-70
2021/11/11 07:36:26;;;;;;;0.00;0.00;;;;;16.80;101089.00;;;;5083121;28;20053;-72
2021/11/11 07:38:56;;;;;;;0.00;0.00;;;;;16.80;101088.00;;;;5088672;28;20090;-71
2021/11/11 07:41:26;;;;;;;0.00;0.00;;;;;16.90;101103.00;;;;5088772;28;20036;-72
2021/11/11 07:43:55;;;;;;;0.00;0.00;;;;;16.90;101075.00;;;;5088858;28;20056;-74
2021/11/11 07:46:25;;;;;;;0.00;0.00;;;;;16.80;101086.00;;;;5088757;28;20040;-71
2021/11/11 07:48:54;;;;;;;0.00;0.00;;;;;16.90;101076.00;;;;5088619;28;20410;-72
2021/11/11 07:51:23;;;;;;;0.10;0.10;;;;;16.90;101084.00;;;;5071086;28;20403;-72
2021/11/11 07:53:53;;;;;;;0.00;0.00;;;;;16.90;101085.00;;;;5088656;28;20043;-70
2021/11/11 07:56:22;;;;;;;0.00;0.00;;;;;16.90;101065.00;;;;5088303;28;20048;-72
2021/11/11 07:58:52;;;;;;;0.00;0.00;;;;;16.90;101095.00;;;;5088168;28;20063;-72
2021/11/11 08:01:22;;;;;;;0.00;0.00;;;;;16.90;101101.00;;;;5088311;28;20052;-72
2021/11/11 08:03:52;;;;;;;;;;;;;16.80;101102.00;;;;5088761;28;20040;-71
2021/11/11 08:06:22;;;;;;;0.00;0.00;;;;;16.70;101082.00;;;;5088360;28;19920;-72
2021/11/11 08:08:52;;;;;;;0.00;0.00;;;;;16.70;101087.00;;;;5087875;28;20040;-70
2021/11/11 08:11:22;;;;;;;0.00;0.00;;;;;16.60;101079.00;;;;5088028;28;20093;-71
2021/11/11 08:13:52;;;;;;;0.00;0.00;;;;;16.60;101093.00;;;;5088506;28;20046;-73
2021/11/11 08:16:21;;;;;;;1.08;0.15;;;;;16.60;101079.00;;;;5088484;28;20538;-71
2021/11/11 08:18:52;;;;;;;0.00;0.00;;;;;16.70;101091.00;;;;5087727;28;20044;-73
2021/11/11 08:21:21;;;;;;;0.00;0.00;;;;;16.60;101111.00;;;;5088194;28;20511;-72
2021/11/11 08:23:51;;;;;;;0.00;0.00;;;;;16.60;101115.00;;;;5087883;28;20039;-72
2021/11/11 08:26:21;;;;;;;0.00;0.00;;;;;16.60;101104.00;;;;5087847;28;20051;-72
2021/11/11 08:28:50;;;;;;;0.00;0.00;;;;;16.50;101089.00;;;;5087614;28;20494;-71
2021/11/11 08:31:20;;;;;;;0.00;0.00;;;;;16.60;101110.00;;;;5087253;28;20239;-72
2021/11/11 08:33:56;;;;;;;0.00;0.00;;;;;16.60;101093.00;;;;5087773;28;20055;-72
2021/11/11 08:36:26;;;;;;;0.00;0.00;;;;;16.70;101120.00;;;;5088439;28;20073;-72
2021/11/11 08:38:57;;;;;;;0.00;0.00;;;;;16.80;101124.00;;;;5088095;28;20082;-72
2021/11/11 08:41:27;;;;;;;0.00;0.00;;;;;16.80;101124.00;;;;5087520;28;20055;-71
2021/11/11 08:43:58;;;;;;;;;;;;;16.80;101133.00;;;;5088197;28;20054;-72
2021/11/11 08:46:27;;;;;;;0.00;0.00;;;;;16.80;101105.00;;;;5068816;28;19923;-72
2021/11/11 08:48:57;;;;;;;0.00;0.00;;;;;16.70;101129.00;;;;5069350;28;20051;-74
2021/11/11 08:51:28;;;;;;;0.00;0.00;;;;;16.60;101115.00;;;;5087457;28;20048;-71
2021/11/11 08:53:58;;;;;;;0.00;0.00;;;;;16.60;101145.00;;;;5087398;28;20574;-74
2021/11/11 08:56:27;;;;;;;0.00;0.00;;;;;16.70;101125.00;;;;5068866;28;20054;-72
2021/11/11 08:59:03;;;;;;;0.00;0.00;;;;;16.70;101112.00;;;;5087527;28;20081;-73
2021/11/11 09:01:34;;;;;;;1.33;0.10;;;;;16.70;101132.00;;;;5087506;28;20597;-71
2021/11/11 09:04:03;;;;;;;0.00;0.00;;;;;16.70;101119.00;;;;5087188;28;20139;-72
2021/11/11 09:06:34;;;;;;;0.00;0.00;;;;;16.70;101142.00;;;;5087062;28;20050;-71
2021/11/11 09:09:04;;;;;;;0.00;0.00;;;;;16.70;101146.00;;;;5087880;28;20040;-72
2021/11/11 09:11:36;;;;;;;0.00;0.00;;;;;16.80;101128.00;;;;5086836;28;20059;-73
2021/11/11 09:14:06;;;;;;;0.00;0.00;;;;;16.80;101162.00;;;;5087020;28;20044;-73
2021/11/11 09:16:37;;;;;;;0.00;0.00;;;;;16.90;101136.00;;;;5087379;28;20048;-72
2021/11/11 09:19:08;;;;;;;0.03;0.03;;;;;16.90;101134.00;;;;5086952;28;20052;-70
2021/11/11 09:21:42;;;;;;;0.00;0.00;;;;;17.00;101167.00;;;;5087682;28;20047;-71
2021/11/11 09:24:12;;;;;;;0.00;0.00;;;;;17.10;101155.00;;;;5086823;28;20050;-72
2021/11/11 09:26:41;;;;;;;0.00;0.00;;;;;17.10;101136.00;;;;5086754;28;20072;-72
2021/11/11 09:29:11;;;;;;;0.00;0.00;;;;;17.20;101163.00;;;;5068545;28;20052;-72
2021/11/11 09:31:41;;;;;;;0.00;0.00;;;;;17.30;101171.00;;;;5084934;28;20119;-72
2021/11/11 09:34:10;;;;;;;0.03;0.03;;;;;17.50;101154.00;;;;5085696;28;20483;-70
2021/11/11 09:36:40;;;;;;;0.00;0.00;;;;;17.60;101148.00;;;;5086710;28;20431;-72
2021/11/11 09:39:09;;;;;;;0.00;0.00;;;;;17.70;101169.00;;;;5086967;28;20426;-72
2021/11/11 09:41:40;;;;;;;0.00;0.00;;;;;17.70;101153.00;;;;5069160;28;20553;-73
2021/11/11 09:44:10;;;;;;;0.00;0.00;;;;;17.80;101150.00;;;;5087146;28;20479;-73
2021/11/11 09:46:40;;;;;;;0.47;0.47;;;;;17.70;101159.00;;;;5086767;28;20573;-72
2021/11/11 09:49:09;;;;;;;0.00;0.00;;;;;17.80;101166.00;;;;5086454;28;20051;-71
2021/11/11 09:51:41;;;;;;;0.00;0.00;;;;;18.10;101144.00;;;;5086452;28;20088;-73
2021/11/11 09:59:37;;;;;;;0.00;0.00;;;;;18.30;101168.00;;;;5071030;28;20063;-73
2021/11/11 10:02:09;;;;;;;0.00;0.00;;;;;18.40;101187.00;;;;5090695;28;20051;-74
2021/11/11 10:04:39;;;;;;;0.00;0.00;;;;;18.60;101188.00;;;;5090839;28;20032;-74
2021/11/11 10:07:10;;;;;;;0.00;0.00;;;;;23.80;100958.00;;;;5090348;28;20036;-73
2021/11/11 10:09:45;;;;;;;1.08;0.70;;;;;27.50;100936.00;;;;5090814;28;20051;-74
2021/11/11 10:12:21;;;;;;;0.00;0.00;;;;;28.50;100935.00;;;;5090507;28;20036;-73
2021/11/11 10:14:52;;;;;;;0.00;0.00;;;;;28.70;100931.00;;;;5090341;28;20499;-72
2021/11/11 10:17:22;;;;;;;;;;;;;29.80;100909.00;;;;5090780;28;20115;-72
2021/11/11 10:19:55;;;;;;;0.00;0.00;;;;;30.10;100928.00;;;;5090248;28;19924;-72
2021/11/11 10:22:29;;;;;;;0.00;0.00;;;;;29.30;100928.00;;;;5090046;28;20044;-72
2021/11/11 10:25:01;;;;;;;0.35;0.13;;;;;29.90;100921.00;;;;5070998;28;20135;-70
2021/11/11 10:27:39;;;;;;;0.00;0.00;;;;;30.90;100930.00;;;;5089987;28;20430;-72
2021/11/11 10:30:14;;;;;;;0.00;0.00;;;;;30.60;100969.00;;;;5090064;28;20040;-70
2021/11/11 10:32:46;;;;;;;5.60;1.55;;;;;27.10;101092.00;;;;5090068;28;20451;-75
2021/11/11 10:35:27;;;;;;;0.00;0.00;;;;;24.90;101131.00;;;;5089114;28;20442;-73
2021/11/11 10:38:10;;;;;;;0.00;0.00;;;;;22.90;101167.00;;;;5089624;28;20430;-73
2021/11/11 10:40:46;;;;;;;2.10;0.10;;;;;23.20;101128.00;;;;5089641;28;20609;-73
2021/11/11 10:43:25;;;;;;;0.08;0.08;;;;;29.00;100990.00;;;;5089718;28;20040;-73
2021/11/11 10:45:56;;;;;;;0.00;0.00;;;;;30.70;100959.00;;;;5089153;28;20048;-74
2021/11/11 10:48:26;;;;;;;0.00;0.00;;;;;31.00;100965.00;;;;5089751;28;20052;-70
2021/11/11 10:50:59;;;;;;;0.70;0.08;;;;;31.50;100952.00;;;;5089485;28;21153;-70
2021/11/11 10:53:36;;;;;;;0.00;0.00;;;;;32.00;100959.00;;;;5090479;28;20105;-71
2021/11/11 10:56:06;;;;;;;0.00;0.00;;;;;32.20;100978.00;;;;5089320;28;20050;-72
2021/11/11 10:58:39;;;;;;;0.20;0.20;;;;;31.00;100972.00;;;;5090334;28;20052;-72
2021/11/11 11:01:19;;;;;;;0.00;0.00;;;;;31.90;100988.00;;;;5089431;28;20507;-72
2021/11/11 11:03:49;;;;;;;;;;;;;32.30;100995.00;;;;5071757;28;20068;-72
2021/11/11 11:06:23;;;;;;;1.70;1.50;;;;;31.10;100989.00;;;;5089464;28;20026;-73
2021/11/11 11:08:57;;;;;;;0.88;0.55;;;;;32.00;100985.00;;;;5089703;28;20506;-74
2021/11/11 11:11:29;;;;;;;3.25;0.20;;;;;31.40;100974.00;;;;5088096;28;20044;-72
2021/11/11 11:14:14;;;;;;;0.00;0.00;;;;;26.70;101131.00;;;;5089626;28;20130;-71
2021/11/11 11:16:45;;;;;;;5.28;0.32;;;;;31.40;101159.00;;;;5071683;28;20047;-73
2021/11/11 11:19:16;;;;;;;0.00;0.00;;;;;26.10;101226.00;;;;5089322;28;20052;-70
2021/11/11 11:21:50;;;;;;;7.50;0.55;;;;;24.00;101212.00;;;;5088715;28;20051;-73
2021/11/11 11:24:24;;;;;;;0.08;0.08;;;;;23.30;101182.00;;;;5071755;28;20052;-73
2021/11/11 11:26:56;;;;;;;0.20;0.15;;;;;28.00;101116.00;;;;5088601;28;20068;-72
2021/11/11 11:32:08;;;;;;;0.00;0.00;;;;;23.40;101214.00;;;;5088902;28;20044;-73
2021/11/11 11:34:41;;;;;;;0.55;0.22;;;;;22.70;101242.00;;;;5088398;28;20078;-73
2021/11/11 11:37:16;;;;;;;0.00;0.00;;;;;22.80;101168.00;;;;5071352;28;20044;-74
2021/11/11 11:39:47;;;;;;;0.08;0.05;;;;;24.60;101224.00;;;;5089827;28;20119;-72
2021/11/11 11:42:19;;;;;;;0.00;0.00;;;;;23.00;101236.00;;;;5088822;28;20040;-72
2021/11/11 11:45:00;;;;;;;0.00;0.00;;;;;22.60;101211.00;;;;5088721;28;20150;-73
2021/11/11 11:47:56;;;;;;;0.00;0.00;;;;;23.50;101153.00;;;;5088411;28;20407;-73
2021/11/11 11:50:35;;;;;;;0.00;0.00;;;;;24.80;101119.00;;;;5088622;28;20044;-73
2021/11/11 11:53:12;;;;;;;0.00;0.00;;;;;25.70;101136.00;;;;5088518;28;20044;-73
2021/11/11 11:58:24;;;;;;;0.00;0.00;;;;;25.30;101135.00;;;;5088981;28;20499;-72
2021/11/11 12:11:52;;;;;;;0.08;0.00;;;;;26.00;101164.00;;;;5088624;28;20071;-72
2021/11/11 12:14:49;;;;;;;0.00;0.00;;;;;26.20;101152.00;;;;5087935;28;20044;-72
2021/11/11 12:29:42;;;;;;;0.15;0.08;;;;;25.50;101135.00;;;;5087328;28;20036;-75
2021/11/11 12:40:38;;;;;;;0.00;0.00;;;;;26.60;101142.00;;;;5087463;28;20050;-72
2021/11/11 12:43:20;;;;;;;0.10;0.10;;;;;25.90;101150.00;;;;5087933;28;20482;-73
2021/11/11 12:45:51;;;;;;;0.00;0.00;;;;;26.30;101131.00;;;;5087303;28;20047;-73
2021/11/11 12:48:22;;;;;;;0.00;0.00;;;;;26.70;101137.00;;;;5088380;28;20040;-73
2021/11/11 12:51:00;;;;;;;1.77;0.00;;;;;26.40;101142.00;;;;5088164;28;20051;-75
2021/11/11 12:53:51;;;;;;;0.57;0.10;;;;;25.80;101124.00;;;;5087846;28;20513;-75
2021/11/11 12:56:26;;;;;;;0.15;0.08;;;;;25.20;101164.00;;;;5087228;28;20055;-74
2021/11/11 12:58:59;;;;;;;0.00;0.00;;;;;26.10;101125.00;;;;5087437;28;20067;-74
2021/11/11 13:01:54;;;;;;;0.00;0.00;;;;;25.90;101216.00;;;;5087009;28;20043;-75
2021/11/11 13:04:25;;;;;;;0.00;0.00;;;;;25.70;101125.00;;;;5087812;28;20503;-75
2021/11/11 13:07:02;;;;;;;0.00;0.00;;;;;25.50;101181.00;;;;5087323;28;20111;-73
2021/11/11 13:09:36;;;;;;;0.00;0.00;;;;;26.60;101118.00;;;;5087195;28;20119;-73
2021/11/11 13:12:25;;;;;;;0.63;0.20;;;;;26.80;101112.00;;;;5087220;28;20059;-73
2021/11/11 13:14:58;;;;;;;0.00;0.00;;;;;27.20;101205.00;;;;5087980;28;20044;-72
2021/11/11 13:17:39;;;;;;;0.00;0.00;;;;;26.60;101148.00;;;;5087011;28;20564;-73
2021/11/11 13:20:35;;;;;;;0.00;0.00;;;;;26.80;101204.00;;;;5087233;28;20040;-74
2021/11/11 13:23:30;;;;;;;0.10;0.10;;;;;26.20;101127.00;;;;5087228;28;20039;-72
2021/11/11 13:26:32;;;;;;;0.00;0.00;;;;;26.90;101116.00;;;;5087008;28;20043;-72
2021/11/11 15:18:07;;;;;;;0.00;0.00;;;;;26.30;101077.00;;;;5089201;28;20146;-73
2021/11/11 16:02:59;;;;;;;0.00;0.00;;;;;27.40;101020.00;;;;5088536;28;20388;-73
2021/11/11 16:25:09;;;;;;;0.00;0.00;;;;;27.10;101019.00;;;;5088205;28;20048;-73
2021/11/11 16:27:40;;;;;;;0.00;0.00;;;;;27.90;101001.00;;;;5088113;28;20040;-73
2021/11/11 16:30:13;;;;;;;0.08;0.08;;;;;27.40;101037.00;;;;5087926;28;20067;-73